Time;durP1;ratioP1;P1;durP2;ratioP2;P2;SDS_P1;SDS_P2;PMS_P1;PMS_P2;Temp;Humidity;BMP_temperature;BMP_pressure;BME280_temperature;BME280_humidity;BME280_pressure;Samples;Min_cycle;Max_cycle;Signal;HPM_P1;HPM_P2
2022/12/08 18:19:54;;;;;;;3.17;1.70;;;20.80;55.70;;;;;;6234960;22;20433;-88
2022/12/08 18:25:55;;;;;;;;;;;;;;;;;;;;;
2022/12/08 18:29:01;;;;;;;;;;;;;;;;;;;;;
2022/12/08 18:44:16;;;;;;;2.27;1.63;;;20.80;56.00;;;;;;6243366;23;20382;-88
2022/12/08 18:47:26;;;;;;;4.67;2.10;;;20.80;56.00;;;;;;6243685;23;20361;-88
2022/12/08 18:49:58;;;;;;;1.73;1.63;;;20.80;56.10;;;;;;6217505;23;20369;-87
2022/12/08 18:53:10;;;;;;;1.83;1.63;;;20.80;56.10;;;;;;6242337;23;20358;-88
2022/12/08 18:56:00;;;;;;;2.63;1.67;;;20.80;56.10;;;;;;6209759;23;20390;-88
2022/12/08 19:01:19;;;;;;;3.13;2.30;;;20.80;56.10;;;;;;6242961;23;20429;-87
2022/12/08 19:04:48;;;;;;;;;;;;;;;;;;;;;
2022/12/08 19:25:32;;;;;;;;;;;;;;;;;;;;;
2022/12/08 19:32:28;;;;;;;;;;;;;;;;;;;;;
2022/12/08 19:35:47;;;;;;;;;;;;;;;;;;;;;
2022/12/08 19:45:20;;;;;;;2.57;1.90;;;20.70;56.30;;;;;;5715548;24;20409;-90
2022/12/08 19:51:59;;;;;;;;;;;;;;;;;;;;;
2022/12/08 19:57:48;;;;;;;1.90;1.63;;;20.60;56.30;;;;;;5927444;24;20377;-91
2022/12/08 20:08:02;;;;;;;2.10;1.77;;;20.50;56.20;;;;;;5957284;24;21427;-91
2022/12/08 20:21:09;;;;;;;;;;;;;;;;;;;;;
2022/12/08 20:24:20;;;;;;;1.70;1.40;;;20.50;56.30;;;;;;6110654;23;20393;-91
2022/12/08 20:27:19;;;;;;;;;;;;;;;;;;;;;
2022/12/08 20:30:50;;;;;;;;;;;;;;;;;;;;;
2022/12/08 20:33:32;;;;;;;1.87;1.67;;;20.40;56.30;;;;;;6120796;23;20353;-90
2022/12/08 20:36:57;;;;;;;;;;;;;;;;;;;;;
2022/12/08 20:39:56;;;;;;;1.90;1.53;;;20.40;56.30;;;;;;6085413;23;20418;-88
2022/12/08 20:42:55;;;;;;;1.70;1.50;;;20.40;56.30;;;;;;6099169;23;20468;-89
2022/12/08 20:52:30;;;;;;;;;;;;;;;;;;;;;
2022/12/08 20:55:20;;;;;;;1.50;1.20;;;20.40;56.40;;;;;;6122884;23;20370;-89
2022/12/08 20:57:49;;;;;;;1.60;1.40;;;20.40;56.40;;;;;;6098869;23;20358;-89
2022/12/08 21:00:47;;;;;;;2.20;1.60;;;20.40;56.40;;;;;;6098470;23;20397;-89
2022/12/08 21:03:17;;;;;;;2.10;1.40;;;20.50;56.50;;;;;;6104170;23;20397;-89
2022/12/08 21:05:57;;;;;;;1.40;1.30;;;20.50;56.50;;;;;;6098870;23;20370;-89
2022/12/08 21:08:35;;;;;;;1.77;1.33;;;20.50;56.50;;;;;;6098899;23;20449;-89
2022/12/08 21:13:56;;;;;;;1.93;1.73;;;20.50;56.50;;;;;;6122796;23;20389;-89
2022/12/08 21:16:33;;;;;;;1.27;1.13;;;20.50;56.50;;;;;;6189638;23;20399;-89
2022/12/08 21:18:59;;;;;;;1.60;1.50;;;20.50;56.40;;;;;;6243140;23;20365;-89
2022/12/08 21:21:51;;;;;;;1.50;1.33;;;20.50;56.40;;;;;;6217006;23;20382;-90
2022/12/08 21:24:45;;;;;;;;;;;;;;;;;;;;;
2022/12/08 21:30:30;;;;;;;1.37;1.23;;;20.50;56.30;;;;;;6222392;23;20385;-89
2022/12/08 21:33:06;;;;;;;1.60;1.40;;;20.60;56.40;;;;;;6204010;23;20379;-88
2022/12/08 21:35:53;;;;;;;1.43;1.20;;;20.60;56.40;;;;;;6217235;23;20385;-88
2022/12/08 21:38:21;;;;;;;1.40;1.30;;;20.50;56.30;;;;;;6242993;23;20386;-87
2022/12/08 21:41:03;;;;;;;1.83;1.53;;;20.50;56.40;;;;;;6217002;23;20398;-88
2022/12/08 21:44:03;;;;;;;;;;;;;;;;;;;;;
2022/12/08 21:47:06;;;;;;;1.77;1.37;;;20.50;56.30;;;;;;6243403;23;20426;-89
2022/12/08 21:49:44;;;;;;;;;;;;;;;;;;;;;
2022/12/08 21:52:16;;;;;;;2.00;1.30;;;20.50;56.30;;;;;;6242704;23;20362;-88
2022/12/08 21:54:54;;;;;;;1.57;1.30;;;20.50;56.30;;;;;;6243226;23;20358;-88
2022/12/08 21:57:42;;;;;;;1.53;1.43;;;20.50;56.30;;;;;;6217033;23;20390;-88
2022/12/08 22:03:19;;;;;;;1.70;1.40;;;20.50;56.30;;;;;;6202030;23;20406;-88
2022/12/08 22:06:06;;;;;;;1.80;1.60;;;20.50;56.30;;;;;;6242740;23;20327;-88
2022/12/08 22:08:35;;;;;;;1.70;1.40;;;20.50;56.30;;;;;;6217077;23;20347;-88
2022/12/08 22:11:06;;;;;;;1.97;1.50;;;20.50;56.30;;;;;;6217144;23;20361;-88
2022/12/08 22:13:46;;;;;;;1.50;1.10;;;20.50;56.30;;;;;;6217227;23;20377;-87
2022/12/08 22:16:19;;;;;;;2.43;1.50;;;20.50;56.30;;;;;;6216626;23;20397;-87
2022/12/08 22:19:05;;;;;;;1.57;1.33;;;20.50;56.30;;;;;;6216868;23;20358;-88
2022/12/08 22:21:34;;;;;;;1.23;1.10;;;20.50;56.30;;;;;;6216810;23;20402;-88
2022/12/08 22:24:00;;;;;;;2.27;1.70;;;20.50;56.30;;;;;;6242638;23;20670;-88
2022/12/08 22:26:26;;;;;;;1.40;1.30;;;20.50;56.30;;;;;;6243087;23;20359;-88
2022/12/08 22:28:52;;;;;;;1.60;1.50;;;20.50;56.30;;;;;;6217352;23;20366;-88
2022/12/08 22:31:22;;;;;;;1.77;1.37;;;20.50;56.30;;;;;;6216827;23;20478;-88
2022/12/08 22:33:53;;;;;;;1.10;0.90;;;20.50;56.30;;;;;;6217108;23;20138;-88
2022/12/08 22:36:26;;;;;;;2.90;1.60;;;20.50;56.30;;;;;;6242664;23;20358;-88
2022/12/08 22:39:02;;;;;;;1.17;1.00;;;20.50;56.30;;;;;;6242714;23;20355;-88
2022/12/08 22:41:31;;;;;;;2.33;1.50;;;20.50;56.30;;;;;;6216934;23;20370;-88
2022/12/08 22:44:05;;;;;;;1.23;1.13;;;20.50;56.20;;;;;;6216909;23;20362;-88
2022/12/08 22:46:33;;;;;;;1.50;1.10;;;20.50;56.20;;;;;;6216999;23;20363;-88
2022/12/08 22:51:48;;;;;;;1.40;1.10;;;20.50;56.30;;;;;;6242587;23;20347;-88
2022/12/08 22:54:27;;;;;;;1.63;1.40;;;20.50;56.30;;;;;;6216671;23;20382;-88
2022/12/08 22:56:56;;;;;;;1.50;1.40;;;20.50;56.30;;;;;;6216355;23;20362;-88
2022/12/08 22:59:24;;;;;;;2.00;1.50;;;20.40;56.30;;;;;;6242666;23;20398;-88
2022/12/08 23:02:09;;;;;;;1.63;1.53;;;20.40;56.30;;;;;;6216664;23;20359;-87
2022/12/08 23:04:41;;;;;;;1.60;1.10;;;20.40;56.30;;;;;;6215729;23;20381;-88
2022/12/08 23:07:12;;;;;;;1.20;1.10;;;20.40;56.30;;;;;;6242545;23;20351;-88
2022/12/08 23:09:40;;;;;;;2.47;1.27;;;20.40;56.30;;;;;;6242869;23;20377;-88
2022/12/08 23:13:03;;;;;;;1.50;1.37;;;20.40;56.30;;;;;;6216931;23;20381;-89
2022/12/08 23:15:29;;;;;;;1.70;1.30;;;20.40;56.30;;;;;;6097707;23;20393;-88
2022/12/08 23:17:55;;;;;;;1.50;1.20;;;20.40;56.30;;;;;;6098274;23;20366;-89
2022/12/08 23:20:24;;;;;;;1.47;1.37;;;20.40;56.40;;;;;;6122019;23;20177;-88
2022/12/08 23:22:52;;;;;;;1.00;0.90;;;20.40;56.40;;;;;;6097554;23;20153;-88
2022/12/08 23:25:18;;;;;;;1.40;1.23;;;20.40;56.40;;;;;;6096884;23;20394;-88
2022/12/08 23:27:45;;;;;;;1.00;0.90;;;20.40;56.40;;;;;;6097711;23;20433;-88
2022/12/08 23:30:17;;;;;;;1.67;1.43;;;20.30;56.30;;;;;;6100260;23;20141;-87
2022/12/08 23:32:48;;;;;;;1.30;1.00;;;20.40;56.40;;;;;;6123983;23;20369;-87
2022/12/08 23:35:14;;;;;;;1.10;1.00;;;20.30;56.30;;;;;;6099783;23;20376;-88
2022/12/08 23:37:47;;;;;;;1.97;1.10;;;20.30;56.30;;;;;;6099583;23;20433;-88
2022/12/08 23:40:16;;;;;;;1.00;0.80;;;20.30;56.40;;;;;;6123558;23;20166;-88
2022/12/08 23:43:04;;;;;;;1.07;0.97;;;20.30;56.30;;;;;;6123871;23;20370;-89
2022/12/08 23:45:29;;;;;;;1.40;1.10;;;20.30;56.40;;;;;;6151392;23;20354;-88
2022/12/08 23:47:55;;;;;;;1.60;1.20;;;20.30;56.40;;;;;;6244449;23;20386;-89
2022/12/08 23:50:21;;;;;;;1.30;1.10;;;20.30;56.40;;;;;;6244362;23;20128;-89
2022/12/08 23:52:47;;;;;;;1.50;1.13;;;20.30;56.40;;;;;;6244255;23;20136;-88
2022/12/08 23:55:13;;;;;;;1.43;1.00;;;20.30;56.40;;;;;;6243991;23;20366;-88
2022/12/08 23:57:38;;;;;;;1.33;1.03;;;20.30;56.40;;;;;;6218102;23;20166;-89
